createdAt,value
2018-04-23T00:01:18.053Z,22.17
2018-04-23T00:02:55.634Z,22.31
2018-04-23T00:04:33.499Z,22.34
2018-04-23T00:06:12.182Z,22.32
2018-04-23T00:07:51.160Z,21.97
2018-04-23T00:09:29.734Z,21.51
2018-04-23T00:11:08.104Z,21.13
2018-04-23T00:12:45.664Z,20.84
2018-04-23T00:14:24.223Z,20.72
2018-04-23T00:16:02.361Z,20.68
2018-04-23T00:17:40.737Z,20.79
2018-04-23T00:19:19.174Z,20.74
2018-04-23T00:20:57.921Z,20.52
2018-04-23T00:22:35.543Z,20.79
2018-04-23T00:24:13.152Z,20.83
2018-04-23T00:25:50.801Z,20.89
2018-04-23T00:27:28.931Z,20.83
2018-04-23T00:29:06.528Z,21.08
2018-04-23T00:30:44.185Z,21.40
2018-04-23T00:32:21.771Z,21.43
2018-04-23T00:34:00.021Z,21.47
2018-04-23T00:35:39.068Z,21.02
2018-04-23T00:37:16.814Z,20.55
2018-04-23T00:38:54.443Z,20.40
2018-04-23T00:40:32.534Z,20.62
2018-04-23T00:42:10.837Z,20.83
2018-04-23T00:43:48.440Z,21.22
2018-04-23T00:45:29.250Z,21.24
2018-04-23T00:47:07.382Z,21.61
2018-04-23T00:48:45.329Z,21.82
2018-04-23T00:50:22.976Z,21.94
2018-04-23T00:52:01.475Z,21.94
2018-04-23T00:53:42.952Z,22.05
2018-04-23T00:55:20.700Z,22.18
2018-04-23T00:56:58.484Z,22.08
2018-04-23T00:58:37.034Z,21.83
2018-04-23T01:00:16.633Z,21.18
2018-04-23T01:01:54.370Z,20.60
2018-04-23T01:03:32.828Z,20.21
2018-04-23T01:05:10.519Z,19.94
2018-04-23T01:06:48.434Z,19.95
2018-04-23T01:08:26.044Z,19.90
2018-04-23T01:10:04.372Z,19.85
2018-04-23T01:11:42.626Z,19.78
2018-04-23T01:13:20.633Z,19.69
2018-04-23T01:14:58.244Z,19.78
2018-04-23T01:16:35.867Z,19.99
2018-04-23T01:18:13.484Z,20.21
2018-04-23T01:19:51.195Z,20.60
2018-04-23T01:21:28.985Z,21.04
2018-04-23T01:23:06.601Z,21.19
2018-04-23T01:24:44.237Z,21.33
2018-04-23T01:26:22.153Z,21.25
2018-04-23T01:27:59.816Z,21.25
2018-04-23T01:29:38.363Z,21.27
2018-04-23T01:31:15.921Z,21.19
2018-04-23T01:32:53.968Z,21.30
2018-04-23T01:34:31.617Z,21.32
2018-04-23T01:36:09.148Z,21.37
2018-04-23T01:37:46.862Z,21.10
2018-04-23T01:39:25.673Z,20.79
2018-04-23T01:41:04.063Z,21.11
2018-04-23T01:42:41.729Z,21.10
2018-04-23T01:44:19.292Z,21.20
2018-04-23T01:45:57.399Z,21.29
2018-04-23T01:47:35.776Z,21.29
2018-04-23T01:49:13.403Z,21.34
2018-04-23T01:50:51.053Z,21.45
2018-04-23T01:52:29.855Z,21.44
2018-04-23T01:54:07.491Z,21.04
2018-04-23T01:55:45.010Z,20.88
2018-04-23T01:57:22.817Z,21.00
2018-04-23T01:59:00.833Z,21.33
2018-04-23T02:00:40.132Z,21.55
2018-04-23T02:02:17.654Z,21.66
2018-04-23T02:03:55.276Z,21.42
2018-04-23T02:05:32.956Z,21.07
2018-04-23T02:07:11.258Z,20.62
2018-04-23T02:08:49.640Z,20.51
2018-04-23T02:10:27.196Z,20.78
2018-04-23T02:12:05.166Z,21.18
2018-04-23T02:13:43.245Z,21.25
2018-04-23T02:15:20.853Z,21.32
2018-04-23T02:16:59.153Z,21.29
2018-04-23T02:18:37.309Z,21.31
2018-04-23T02:20:14.944Z,21.10
2018-04-23T02:21:54.246Z,21.28
2018-04-23T02:23:31.778Z,21.13
2018-04-23T02:25:09.918Z,21.25
2018-04-23T02:26:47.488Z,21.30
2018-04-23T02:28:25.092Z,21.01
2018-04-23T02:30:03.421Z,21.03
2018-04-23T02:31:41.550Z,21.09
2018-04-23T02:33:19.861Z,21.35
2018-04-23T02:34:57.499Z,21.52
2018-04-23T02:36:35.094Z,21.56
2018-04-23T02:38:13.196Z,21.54
2018-04-23T02:39:51.313Z,21.46
2018-04-23T02:41:28.892Z,21.43
2018-04-23T02:43:06.460Z,21.40
2018-04-23T02:44:44.546Z,20.97
2018-04-23T02:47:55.071Z,21.07
2018-04-23T02:49:32.659Z,20.97
2018-04-23T02:51:11.348Z,20.81
2018-04-23T02:52:49.549Z,20.69
2018-04-23T02:54:27.276Z,20.56
2018-04-23T02:56:05.059Z,20.57
2018-04-23T02:57:43.675Z,20.65
2018-04-23T02:59:21.226Z,20.60
2018-04-23T03:00:59.207Z,20.63
2018-04-23T03:02:37.354Z,20.50
2018-04-23T03:04:15.491Z,20.27
2018-04-23T03:05:53.466Z,20.25
2018-04-23T03:07:31.101Z,20.55
2018-04-23T03:09:09.004Z,20.67
2018-04-23T03:10:47.173Z,20.64
2018-04-23T03:12:25.657Z,20.46
2018-04-23T03:14:03.332Z,20.21
2018-04-23T03:15:41.664Z,20.15
2018-04-23T03:17:19.569Z,20.11
2018-04-23T03:18:57.213Z,20.06
2018-04-23T03:20:34.907Z,20.04
2018-04-23T03:22:12.485Z,20.08
2018-04-23T03:23:50.057Z,19.93
2018-04-23T03:25:27.714Z,19.81
2018-04-23T03:27:05.403Z,19.79
2018-04-23T03:28:44.118Z,19.64
2018-04-23T03:30:21.808Z,19.66
2018-04-23T03:31:59.385Z,19.59
2018-04-23T03:33:37.734Z,19.67
2018-04-23T03:35:16.643Z,19.80
2018-04-23T03:36:54.537Z,19.72
2018-04-23T03:38:32.235Z,19.54
2018-04-23T03:40:09.847Z,19.71
2018-04-23T03:41:48.357Z,19.94
2018-04-23T03:43:25.950Z,19.78
2018-04-23T03:45:05.375Z,19.86
2018-04-23T03:46:43.830Z,19.96
2018-04-23T03:48:21.832Z,20.10
2018-04-23T03:49:59.422Z,20.31
2018-04-23T03:51:37.118Z,20.38
2018-04-23T03:53:14.761Z,20.45
2018-04-23T03:54:52.853Z,20.41
2018-04-23T03:56:31.211Z,20.24
2018-04-23T03:58:09.719Z,20.12
2018-04-23T03:59:48.068Z,20.19
2018-04-23T04:01:26.059Z,20.03
2018-04-23T04:03:03.998Z,20.06
2018-04-23T04:04:42.330Z,20.18
2018-04-23T04:06:19.967Z,20.60
2018-04-23T04:07:59.096Z,20.66
2018-04-23T04:09:37.167Z,20.84
2018-04-23T04:11:14.694Z,20.86
2018-04-23T04:17:12.828Z,20.84
2018-04-23T04:18:50.967Z,20.45
2018-04-23T04:20:29.076Z,19.92
2018-04-23T04:22:06.819Z,19.87
2018-04-23T04:23:45.384Z,19.74
2018-04-23T04:25:23.277Z,19.68
2018-04-23T04:27:01.322Z,19.40
2018-04-23T04:28:39.745Z,19.46
2018-04-23T04:30:18.803Z,19.69
2018-04-23T04:31:57.222Z,20.04
2018-04-23T04:33:36.975Z,20.03
2018-04-23T04:35:14.648Z,20.16
2018-04-23T04:36:52.231Z,20.11
2018-04-23T04:38:30.561Z,20.23
2018-04-23T04:40:08.686Z,19.82
2018-04-23T04:41:46.343Z,19.53
2018-04-23T04:43:26.695Z,19.34
2018-04-23T04:45:05.535Z,19.42
2018-04-23T04:46:43.885Z,19.21
2018-04-23T04:48:23.465Z,18.85
2018-04-23T04:50:01.143Z,18.74
2018-04-23T04:51:45.093Z,19.15
2018-04-23T04:53:23.119Z,19.22
2018-04-23T04:55:01.621Z,19.09
2018-04-23T04:56:40.237Z,18.67
2018-04-23T04:58:20.778Z,18.90
2018-04-23T04:59:58.911Z,19.03
2018-04-23T05:01:37.311Z,18.99
2018-04-23T05:03:16.984Z,19.06
2018-04-23T05:04:55.684Z,19.02
2018-04-23T05:06:34.725Z,19.13
2018-04-23T05:08:12.450Z,18.99
2018-04-23T05:09:50.114Z,18.81
2018-04-23T05:11:27.747Z,18.94
2018-04-23T05:13:05.406Z,19.03
2018-04-23T05:14:43.690Z,19.18
2018-04-23T05:16:22.008Z,19.25
2018-04-23T05:17:59.698Z,19.41
2018-04-23T05:19:37.833Z,19.40
2018-04-23T05:21:15.498Z,18.94
2018-04-23T05:22:53.722Z,18.92
2018-04-23T05:24:32.355Z,19.07
2018-04-23T05:26:11.690Z,18.96
2018-04-23T05:27:49.458Z,19.11
2018-04-23T05:29:28.492Z,19.35
2018-04-23T05:31:06.619Z,19.60
2018-04-23T05:32:44.698Z,19.74
2018-04-23T05:34:23.185Z,19.61
2018-04-23T05:36:01.897Z,19.62
2018-04-23T05:37:41.497Z,19.53
2018-04-23T05:39:19.733Z,19.13
2018-04-23T05:40:57.513Z,19.35
2018-04-23T05:42:35.273Z,19.57
2018-04-23T05:44:12.962Z,19.62
2018-04-23T05:45:52.440Z,19.06
2018-04-23T05:47:30.688Z,19.36
2018-04-23T05:49:09.277Z,19.30
2018-04-23T05:50:47.308Z,19.13
2018-04-23T05:52:25.690Z,19.12
2018-04-23T05:54:03.385Z,19.40
2018-04-23T05:55:41.172Z,19.72
2018-04-23T05:57:19.770Z,19.84
2018-04-23T05:58:58.849Z,19.71
2018-04-23T06:00:37.511Z,19.97
2018-04-23T06:02:15.285Z,20.13
2018-04-23T06:03:53.197Z,20.05
2018-04-23T06:05:33.186Z,20.13
2018-04-23T06:07:10.854Z,20.10
2018-04-23T06:08:48.594Z,20.17
2018-04-23T06:10:26.422Z,20.22
2018-04-23T06:12:04.580Z,20.23
2018-04-23T06:13:43.157Z,20.28
2018-04-23T06:15:21.018Z,20.27
2018-04-23T06:16:58.680Z,20.35
2018-04-23T06:18:36.392Z,20.32
2018-04-23T06:20:14.842Z,20.39
2018-04-23T06:21:52.555Z,20.34
2018-04-23T06:23:30.245Z,20.34
2018-04-23T06:25:08.526Z,19.73
2018-04-23T06:26:46.172Z,19.31
2018-04-23T06:28:25.241Z,19.63
2018-04-23T06:30:04.171Z,19.91
2018-04-23T06:31:43.295Z,19.92
2018-04-23T06:33:21.185Z,19.86
2018-04-23T06:34:58.818Z,19.88
2018-04-23T06:36:36.542Z,19.86
2018-04-23T06:38:14.671Z,19.77
2018-04-23T06:39:52.341Z,19.69
2018-04-23T06:41:30.256Z,19.58
2018-04-23T06:43:08.766Z,19.25
2018-04-23T06:44:48.014Z,19.22
2018-04-23T06:46:26.590Z,19.45
2018-04-23T06:48:04.367Z,19.66
2018-04-23T06:49:43.666Z,19.74
2018-04-23T06:51:23.539Z,19.86
2018-04-23T06:53:01.223Z,19.61
2018-04-23T06:54:38.859Z,19.36
2018-04-23T06:56:17.226Z,19.32
2018-04-23T06:57:55.409Z,19.40
2018-04-23T06:59:33.271Z,19.34
2018-04-23T07:01:11.491Z,19.41
2018-04-23T07:02:49.213Z,19.39
2018-04-23T07:04:27.445Z,19.42
2018-04-23T07:06:05.852Z,19.29
2018-04-23T07:07:55.608Z,19.21
2018-04-23T07:09:34.060Z,18.95
2018-04-23T07:11:12.175Z,18.94
2018-04-23T07:12:49.773Z,18.92
2018-04-23T07:14:27.456Z,18.99
2018-04-23T07:16:06.337Z,19.02
2018-04-23T07:17:44.314Z,19.03
2018-04-23T07:19:22.115Z,18.96
2018-04-23T07:20:59.830Z,19.00
2018-04-23T07:22:38.321Z,18.94
2018-04-23T07:24:16.853Z,18.92
2018-04-23T07:25:55.957Z,19.08
2018-04-23T07:27:33.578Z,18.98
2018-04-23T07:29:11.220Z,19.22
2018-04-23T07:30:50.205Z,19.29
2018-04-23T07:32:29.196Z,18.89
2018-04-23T07:34:06.797Z,18.60
2018-04-23T07:35:44.864Z,18.88
2018-04-23T07:37:22.565Z,19.01
2018-04-23T07:39:00.224Z,19.41
2018-04-23T07:40:38.007Z,19.70
2018-04-23T07:42:16.122Z,19.97
2018-04-23T07:43:53.859Z,19.93
2018-04-23T07:45:32.379Z,19.56
2018-04-23T07:47:10.079Z,19.83
2018-04-23T07:48:48.171Z,20.16
2018-04-23T07:50:26.139Z,20.39
2018-04-23T07:52:04.733Z,20.35
2018-04-23T07:53:42.460Z,20.72
2018-04-23T07:55:20.600Z,20.77
2018-04-23T07:56:59.277Z,20.51
2018-04-23T07:58:37.676Z,20.77
2018-04-23T08:00:17.414Z,21.13
2018-04-23T08:01:56.262Z,21.20
2018-04-23T08:03:34.647Z,21.03
2018-04-23T08:05:13.260Z,21.00
2018-04-23T08:08:49.786Z,20.86
2018-04-23T08:10:27.404Z,21.10
2018-04-23T08:12:05.945Z,21.39
2018-04-23T08:13:45.509Z,21.31
2018-04-23T08:15:23.342Z,21.10
2018-04-23T08:17:00.965Z,21.06
2018-04-23T08:18:38.720Z,21.13
2018-04-23T08:20:19.961Z,21.18
2018-04-23T08:21:58.975Z,21.37
2018-04-23T08:23:36.555Z,21.65
2018-04-23T08:25:14.969Z,21.58
2018-04-23T08:26:53.361Z,21.70
2018-04-23T08:28:32.388Z,21.79
2018-04-23T08:30:10.348Z,21.93
2018-04-23T08:31:51.895Z,22.14
2018-04-23T08:33:30.046Z,21.99
2018-04-23T08:35:07.734Z,21.65
2018-04-23T08:36:45.426Z,21.51
2018-04-23T08:38:23.132Z,21.52
2018-04-23T08:40:02.173Z,21.69
2018-04-23T08:41:39.821Z,21.88
2018-04-23T08:43:18.319Z,21.75
2018-04-23T08:44:56.217Z,21.79
2018-04-23T08:46:35.179Z,21.30
2018-04-23T08:48:12.981Z,21.64
2018-04-23T08:49:50.601Z,21.74
2018-04-23T08:51:28.331Z,21.91
2018-04-23T08:53:06.398Z,21.90
2018-04-23T08:54:44.217Z,22.07
2018-04-23T08:56:21.918Z,22.03
2018-04-23T08:58:00.411Z,21.77
2018-04-23T08:59:38.516Z,21.97
2018-04-23T09:01:16.679Z,22.18
2018-04-23T09:02:54.329Z,22.18
2018-04-23T09:04:32.062Z,22.27
2018-04-23T09:06:10.098Z,22.21
2018-04-23T09:07:48.313Z,21.94
2018-04-23T09:09:26.504Z,21.68
2018-04-23T09:11:04.183Z,21.53
2018-04-23T09:12:41.908Z,21.32
2018-04-23T09:14:19.616Z,21.44
2018-04-23T09:16:18.993Z,21.60
2018-04-23T09:17:59.078Z,21.67
2018-04-23T09:19:38.015Z,21.68
2018-04-23T09:21:16.475Z,21.65
2018-04-23T09:22:54.065Z,21.91
2018-04-23T09:24:31.881Z,21.97
2018-04-23T09:26:10.194Z,22.00
2018-04-23T09:27:47.836Z,22.34
2018-04-23T09:29:25.532Z,22.23
2018-04-23T09:31:04.603Z,22.20
2018-04-23T09:32:42.773Z,22.21
2018-04-23T09:34:20.533Z,22.27
2018-04-23T09:35:58.284Z,22.32
2018-04-23T09:37:36.660Z,22.31
2018-04-23T09:39:14.747Z,22.34
2018-04-23T09:40:52.337Z,22.41
2018-04-23T09:42:29.979Z,22.26
2018-04-23T09:44:08.223Z,22.17
2018-04-23T09:45:48.516Z,22.04
2018-04-23T09:47:26.084Z,22.11
2018-04-23T09:49:03.784Z,21.93
2018-04-23T09:50:41.483Z,22.07
2018-04-23T09:52:19.580Z,22.27
2018-04-23T09:53:57.299Z,22.30
2018-04-23T09:55:34.903Z,22.02
2018-04-23T09:57:13.433Z,21.91
2018-04-23T09:58:52.160Z,21.88
2018-04-23T10:00:32.333Z,22.07
2018-04-23T10:02:12.860Z,22.32
2018-04-23T10:03:51.656Z,22.51
2018-04-23T10:05:29.820Z,22.29
2018-04-23T10:07:07.480Z,22.18
2018-04-23T10:08:46.148Z,22.45
2018-04-23T10:10:23.883Z,22.80
2018-04-23T10:12:04.669Z,22.90
2018-04-23T10:13:43.217Z,22.97
2018-04-23T10:15:21.201Z,23.25
2018-04-23T10:16:58.956Z,23.47
2018-04-23T10:18:36.690Z,23.29
2018-04-23T10:20:14.408Z,23.25
2018-04-23T10:21:53.487Z,23.00
2018-04-23T10:23:31.878Z,22.90
2018-04-23T10:25:09.984Z,22.85
2018-04-23T10:26:47.758Z,22.84
2018-04-23T10:28:25.365Z,22.98
2018-04-23T10:30:05.560Z,23.09
2018-04-23T10:31:44.908Z,22.98
2018-04-23T10:33:22.617Z,22.92
2018-04-23T10:35:00.565Z,22.92
2018-04-23T10:36:38.301Z,22.43
2018-04-23T10:38:16.319Z,22.20
2018-04-23T10:39:54.960Z,21.97
2018-04-23T10:41:33.454Z,22.08
2018-04-23T10:43:11.753Z,22.16
2018-04-23T10:44:50.180Z,22.31
2018-04-23T10:46:29.513Z,21.95
2018-04-23T10:48:07.932Z,21.69
2018-04-23T10:49:46.633Z,21.83
2018-04-23T10:51:25.817Z,21.75
2018-04-23T10:53:04.389Z,21.74
2018-04-23T10:54:42.190Z,21.95
2018-04-23T10:56:20.745Z,22.20
2018-04-23T10:58:01.533Z,22.06
2018-04-23T10:59:40.036Z,21.90
2018-04-23T11:01:17.731Z,22.14
2018-04-23T11:02:55.347Z,22.43
2018-04-23T11:04:33.492Z,22.69
2018-04-23T11:06:11.122Z,22.63
2018-04-23T11:07:49.050Z,22.54
2018-04-23T11:09:26.959Z,22.49
2018-04-23T11:11:05.893Z,22.50
2018-04-23T11:12:43.605Z,22.40
2018-04-23T11:16:00.721Z,21.99
2018-04-23T11:17:38.739Z,21.95
2018-04-23T11:19:17.109Z,21.71
2018-04-23T11:20:54.760Z,21.38
2018-04-23T11:22:32.697Z,21.06
2018-04-23T11:24:10.648Z,20.90
2018-04-23T11:25:48.314Z,20.96
2018-04-23T11:27:25.925Z,21.07
2018-04-23T11:29:04.401Z,21.03
2018-04-23T11:30:42.440Z,21.20
2018-04-23T11:32:20.094Z,21.35
2018-04-23T11:33:57.771Z,21.56
2018-04-23T11:35:35.281Z,21.76
2018-04-23T11:37:13.181Z,22.00
2018-04-23T11:38:51.109Z,21.79
2018-04-23T11:40:29.024Z,21.81
2018-04-23T11:42:07.369Z,22.00
2018-04-23T11:43:45.347Z,22.09
2018-04-23T11:45:24.632Z,22.21
2018-04-23T11:47:02.821Z,21.85
2018-04-23T11:48:40.436Z,22.00
2018-04-23T11:50:18.406Z,22.48
2018-04-23T11:51:56.064Z,22.60
2018-04-23T11:53:33.706Z,22.68
2018-04-23T11:55:12.173Z,22.79
2018-04-23T11:56:50.249Z,22.67
2018-04-23T11:58:27.862Z,22.55
2018-04-23T12:00:06.070Z,22.59
2018-04-23T12:01:43.691Z,22.32
2018-04-23T12:03:21.689Z,22.31
2018-04-23T12:04:59.316Z,22.40
2018-04-23T12:06:36.896Z,22.35
2018-04-23T12:08:14.571Z,22.44
2018-04-23T12:09:52.496Z,22.58
2018-04-23T12:11:30.903Z,22.69
2018-04-23T12:13:08.572Z,22.69
2018-04-23T12:14:46.144Z,22.79
2018-04-23T12:16:24.072Z,22.95
2018-04-23T12:18:01.722Z,23.12
2018-04-23T12:19:40.057Z,23.09
2018-04-23T12:21:17.657Z,23.24
2018-04-23T12:22:55.784Z,23.32
2018-04-23T12:24:33.398Z,23.33
2018-04-23T12:26:11.716Z,23.36
2018-04-23T12:27:49.984Z,23.23
2018-04-23T12:29:32.592Z,23.13
2018-04-23T12:31:11.305Z,23.26
2018-04-23T12:32:48.966Z,23.56
2018-04-23T12:34:26.677Z,23.96
2018-04-23T12:36:04.755Z,24.22
2018-04-23T12:37:42.294Z,23.89
2018-04-23T12:39:19.857Z,23.64
2018-04-23T12:40:57.551Z,23.53
2018-04-23T12:42:35.663Z,23.34
2018-04-23T12:44:13.250Z,23.33
2018-04-23T12:45:50.898Z,23.24
2018-04-23T12:47:28.529Z,23.03
2018-04-23T12:49:06.666Z,23.25
2018-04-23T12:50:44.341Z,23.25
2018-04-23T12:52:22.164Z,23.16
2018-04-23T12:54:00.665Z,23.51
2018-04-23T12:55:38.625Z,23.68
2018-04-23T12:57:16.261Z,23.59
2018-04-23T12:58:53.911Z,23.43
2018-04-23T13:00:31.617Z,23.53
2018-04-23T13:02:09.302Z,23.55
2018-04-23T13:03:46.934Z,23.56
2018-04-23T13:05:24.502Z,23.80
2018-04-23T13:07:02.615Z,23.95
2018-04-23T13:08:40.216Z,23.80
2018-04-23T13:10:17.865Z,23.58
2018-04-23T13:11:55.546Z,23.43
2018-04-23T13:13:33.868Z,23.27
2018-04-23T13:15:13.170Z,23.40
2018-04-23T13:16:52.673Z,23.58
2018-04-23T13:18:30.381Z,23.62
2018-04-23T13:20:08.574Z,23.64
2018-04-23T13:21:47.652Z,23.80
2018-04-23T13:24:58.197Z,24.14
2018-04-23T13:26:36.541Z,24.26
2018-04-23T13:28:14.360Z,24.15
2018-04-23T13:29:53.780Z,24.02
2018-04-23T13:31:32.284Z,23.98
2018-04-23T13:33:11.372Z,23.84
2018-04-23T13:34:49.220Z,23.85
2018-04-23T13:36:27.620Z,23.77
2018-04-23T13:38:06.500Z,23.96
2018-04-23T13:39:45.479Z,24.11
2018-04-23T13:41:23.904Z,24.33
2018-04-23T13:43:01.713Z,24.46
2018-04-23T13:44:39.456Z,24.42
2018-04-23T13:46:18.422Z,24.24
2018-04-23T13:47:56.682Z,24.22
2018-04-23T13:49:35.209Z,24.11
2018-04-23T13:51:13.809Z,24.23
2018-04-23T13:52:52.564Z,24.28
2018-04-23T13:54:30.306Z,24.36
2018-04-23T13:56:08.125Z,24.22
2018-04-23T13:57:46.615Z,23.72
2018-04-23T13:59:24.724Z,23.35
2018-04-23T14:01:03.228Z,23.05
2018-04-23T14:02:41.020Z,23.17
2018-04-23T14:04:24.438Z,23.22
2018-04-23T14:06:02.437Z,23.11
2018-04-23T14:07:42.204Z,23.23
2018-04-23T14:09:21.731Z,23.23
2018-04-23T14:11:00.472Z,23.05
2018-04-23T14:12:38.267Z,23.05
2018-04-23T14:14:15.976Z,22.93
2018-04-23T14:15:54.529Z,22.89
2018-04-23T14:17:32.526Z,22.76
2018-04-23T14:19:11.546Z,22.88
2018-04-23T14:20:49.315Z,22.87
2018-04-23T14:22:27.046Z,23.05
2018-04-23T14:24:04.826Z,22.99
2018-04-23T14:25:42.584Z,22.97
2018-04-23T14:27:21.118Z,23.03
2018-04-23T14:28:58.771Z,22.97
2018-04-23T14:30:36.935Z,22.98
2018-04-23T14:32:14.567Z,23.12
2018-04-23T14:33:52.261Z,23.17
2018-04-23T14:35:30.217Z,23.21
2018-04-23T14:37:08.526Z,23.26
2018-04-23T14:38:46.232Z,23.32
2018-04-23T14:40:24.089Z,23.36
2018-04-23T14:42:01.972Z,22.96
2018-04-23T14:43:40.936Z,22.67
2018-04-23T14:45:19.827Z,22.43
2018-04-23T14:46:57.555Z,22.37
2018-04-23T14:48:35.321Z,22.35
2018-04-23T14:50:14.751Z,22.30
2018-04-23T14:51:52.515Z,22.03
2018-04-23T14:53:30.238Z,21.99
2018-04-23T14:55:07.987Z,22.02
2018-04-23T14:56:46.153Z,21.89
2018-04-23T14:58:23.849Z,21.64
2018-04-23T15:00:01.743Z,21.84
2018-04-23T15:01:41.319Z,22.10
2018-04-23T15:03:19.344Z,22.22
2018-04-23T15:04:56.990Z,22.41
2018-04-23T15:06:34.778Z,22.56
2018-04-23T15:08:12.629Z,22.71
2018-04-23T15:09:50.346Z,22.49
2018-04-23T15:11:28.430Z,22.48
2018-04-23T15:13:06.340Z,22.54
2018-04-23T15:14:44.048Z,22.67
2018-04-23T15:16:23.525Z,22.80
2018-04-23T15:18:01.424Z,22.91
2018-04-23T15:19:39.362Z,22.78
2018-04-23T15:21:18.951Z,22.60
2018-04-23T15:22:57.127Z,22.46
2018-04-23T15:24:34.806Z,22.41
2018-04-23T15:28:09.585Z,22.28
2018-04-23T15:29:47.314Z,22.24
2018-04-23T15:31:26.326Z,22.14
2018-04-23T15:33:04.901Z,22.16
2018-04-23T15:34:42.938Z,22.21
2018-04-23T15:36:20.777Z,22.12
2018-04-23T15:37:58.636Z,21.99
2018-04-23T15:39:37.209Z,21.83
2018-04-23T15:41:15.253Z,21.90
2018-04-23T15:42:52.953Z,22.21
2018-04-23T15:44:30.770Z,22.47
2018-04-23T15:46:09.946Z,22.53
2018-04-23T15:47:47.994Z,22.67
2018-04-23T15:49:28.410Z,22.75
2018-04-23T15:51:06.385Z,22.68
2018-04-23T15:52:45.051Z,22.63
2018-04-23T15:54:23.173Z,22.56
2018-04-23T15:56:00.845Z,22.58
2018-04-23T15:57:38.604Z,22.61
2018-04-23T15:59:16.528Z,22.75
2018-04-23T16:00:54.515Z,22.74
2018-04-23T16:02:32.342Z,22.92
2018-04-23T16:04:10.131Z,22.78
2018-04-23T16:05:48.096Z,22.56
2018-04-23T16:07:26.186Z,22.46
2018-04-23T16:09:04.232Z,22.27
2018-04-23T16:10:42.009Z,21.93
2018-04-23T16:12:19.728Z,21.87
2018-04-23T16:13:57.792Z,21.71
2018-04-23T16:15:35.491Z,21.62
2018-04-23T16:17:17.674Z,21.70
2018-04-23T16:18:57.072Z,21.94
2018-04-23T16:20:34.811Z,21.95
2018-04-23T16:22:12.573Z,21.96
2018-04-23T16:23:50.396Z,21.89
2018-04-23T16:25:28.102Z,21.79
2018-04-23T16:27:06.281Z,21.86
2018-04-23T16:28:44.129Z,22.01
2018-04-23T16:30:21.899Z,22.02
2018-04-23T16:32:00.249Z,21.82
2018-04-23T16:33:39.432Z,21.37
2018-04-23T16:35:17.196Z,21.26
2018-04-23T16:36:55.095Z,21.39
2018-04-23T16:38:33.577Z,21.63
2018-04-23T16:40:11.665Z,21.86
2018-04-23T16:41:50.308Z,21.81
2018-04-23T16:43:28.424Z,21.53
2018-04-23T16:45:07.671Z,21.32
2018-04-23T16:46:45.878Z,21.28
2018-04-23T16:48:24.701Z,21.19
2018-04-23T16:50:02.459Z,21.18
2018-04-23T16:51:40.917Z,21.24
2018-04-23T16:53:19.063Z,21.25
2018-04-23T16:54:58.245Z,21.33
2018-04-23T16:56:35.987Z,21.41
2018-04-23T16:58:14.875Z,21.44
2018-04-23T16:59:53.714Z,21.45
2018-04-23T17:01:32.332Z,21.44
2018-04-23T17:03:10.913Z,21.49
2018-04-23T17:04:48.617Z,21.57
2018-04-23T17:06:28.677Z,21.73
2018-04-23T17:08:07.477Z,21.95
2018-04-23T17:09:45.181Z,22.06
2018-04-23T17:11:23.113Z,21.98
2018-04-23T17:13:01.571Z,21.93
2018-04-23T17:14:39.653Z,21.85
2018-04-23T17:16:23.570Z,21.75
2018-04-23T17:18:01.557Z,21.50
2018-04-23T17:19:39.871Z,21.21
2018-04-23T17:21:20.078Z,21.11
2018-04-23T17:22:58.815Z,21.21
2018-04-23T17:24:36.722Z,21.21
2018-04-23T17:28:03.382Z,21.21
2018-04-23T17:29:51.937Z,21.27
2018-04-23T17:31:30.537Z,21.09
2018-04-23T17:33:08.342Z,20.94
2018-04-23T17:34:46.478Z,20.93
2018-04-23T17:36:24.151Z,20.98
2018-04-23T17:38:02.042Z,20.94
2018-04-23T17:39:40.367Z,20.80
2018-04-23T17:41:20.022Z,20.74
2018-04-23T17:42:58.602Z,20.77
2018-04-23T17:44:36.750Z,20.70
2018-04-23T17:46:15.210Z,20.69
2018-04-23T17:47:52.884Z,20.68
2018-04-23T17:49:30.590Z,20.68
2018-04-23T17:51:08.739Z,20.64
2018-04-23T17:52:47.217Z,20.78
2018-04-23T17:54:25.021Z,20.93
2018-04-23T17:56:03.112Z,20.94
2018-04-23T17:57:41.823Z,21.01
2018-04-23T17:59:19.559Z,20.99
2018-04-23T18:00:57.962Z,20.97
2018-04-23T18:02:35.612Z,21.00
2018-04-23T18:04:13.683Z,20.98
2018-04-23T18:05:52.177Z,20.90
2018-04-23T18:07:31.243Z,20.93
2018-04-23T18:09:09.975Z,20.93
2018-04-23T18:10:48.032Z,21.03
2018-04-23T18:12:25.643Z,21.03
2018-04-23T18:14:03.224Z,21.05
2018-04-23T18:15:40.799Z,21.11
2018-04-23T18:17:18.834Z,21.18
2018-04-23T18:18:56.425Z,21.22
2018-04-23T18:20:34.061Z,21.31
2018-04-23T18:22:12.426Z,21.32
2018-04-23T18:23:52.400Z,21.25
2018-04-23T18:25:31.273Z,21.12
2018-04-23T18:27:08.877Z,21.00
2018-04-23T18:28:48.774Z,20.98
2018-04-23T18:30:31.328Z,20.95
2018-04-23T18:32:09.956Z,20.99
2018-04-23T18:33:47.533Z,20.98
2018-04-23T18:35:25.155Z,21.10
2018-04-23T18:37:03.191Z,21.11
2018-04-23T18:38:41.349Z,21.11
2018-04-23T18:40:19.079Z,21.09
2018-04-23T18:41:57.504Z,21.14
2018-04-23T18:43:35.790Z,21.11
2018-04-23T18:45:15.925Z,21.02
2018-04-23T18:46:54.585Z,21.03
2018-04-23T18:48:33.354Z,21.10
2018-04-23T18:50:11.458Z,21.01
2018-04-23T18:51:49.250Z,20.95
2018-04-23T18:53:27.183Z,21.09
2018-04-23T18:55:05.892Z,21.21
2018-04-23T18:56:51.532Z,21.24
2018-04-23T18:58:29.783Z,21.26
2018-04-23T19:00:08.651Z,21.22
2018-04-23T19:01:49.027Z,20.95
2018-04-23T19:03:34.731Z,20.96
2018-04-23T19:05:12.623Z,21.05
2018-04-23T19:08:36.688Z,21.04
2018-04-23T19:10:14.477Z,21.05
2018-04-23T19:13:34.323Z,20.87
2018-04-23T19:15:13.350Z,20.88
2018-04-23T19:16:53.172Z,20.70
2018-04-23T19:18:30.980Z,20.61
2018-04-23T19:20:08.935Z,20.47
2018-04-23T19:21:47.130Z,20.48
2018-04-23T19:23:25.056Z,20.54
2018-04-23T19:25:02.778Z,20.57
2018-04-23T19:26:40.613Z,20.61
2018-04-23T19:28:18.631Z,20.59
2018-04-23T19:29:57.249Z,20.54
2018-04-23T19:31:35.235Z,20.36
2018-04-23T19:33:12.865Z,20.45
2018-04-23T19:34:52.223Z,20.59
2018-04-23T19:36:30.157Z,20.70
2018-04-23T19:38:08.952Z,20.72
2018-04-23T19:39:47.632Z,20.66
2018-04-23T19:41:25.829Z,20.55
2018-04-23T19:43:10.120Z,20.38
2018-04-23T19:44:50.635Z,20.35
2018-04-23T19:46:28.687Z,20.35
2018-04-23T19:48:06.423Z,20.44
2018-04-23T19:49:46.046Z,20.53
2018-04-23T19:51:23.736Z,20.58
2018-04-23T19:53:01.941Z,20.53
2018-04-23T19:54:39.552Z,20.66
2018-04-23T19:56:17.352Z,20.77
2018-04-23T19:57:55.972Z,20.80
2018-04-23T19:59:34.441Z,20.69
2018-04-23T20:01:12.227Z,20.64
2018-04-23T20:02:56.037Z,20.51
2018-04-23T20:04:42.408Z,20.39
2018-04-23T20:06:21.986Z,20.35
2018-04-23T20:08:00.691Z,20.33
2018-04-23T20:09:38.540Z,20.30
2018-04-23T20:11:16.253Z,20.26
2018-04-23T20:12:54.929Z,20.19
2018-04-23T20:14:32.756Z,20.15
2018-04-23T20:16:10.387Z,20.21
2018-04-23T20:17:48.173Z,20.35
2018-04-23T20:19:27.011Z,20.45
2018-04-23T20:21:04.795Z,20.45
2018-04-23T20:22:43.200Z,20.29
2018-04-23T20:24:21.687Z,20.29
2018-04-23T20:25:59.913Z,20.45
2018-04-23T20:27:37.694Z,20.36
2018-04-23T20:29:15.577Z,20.26
2018-04-23T20:30:53.436Z,20.17
2018-04-23T20:32:31.669Z,20.28
2018-04-23T20:34:09.566Z,20.30
2018-04-23T20:35:48.037Z,20.34
2018-04-23T20:37:26.091Z,20.36
2018-04-23T20:39:05.181Z,20.39
2018-04-23T20:40:42.836Z,20.47
2018-04-23T20:42:20.505Z,20.50
2018-04-23T20:43:58.881Z,20.38
2018-04-23T20:45:37.193Z,20.45
2018-04-23T20:47:14.856Z,20.41
2018-04-23T20:48:54.001Z,20.58
2018-04-23T20:50:31.697Z,20.38
2018-04-23T20:52:09.964Z,20.41
2018-04-23T20:53:48.335Z,20.26
2018-04-23T20:55:26.428Z,20.11
2018-04-23T20:57:04.114Z,20.21
2018-04-23T20:58:44.936Z,20.36
2018-04-23T21:00:24.640Z,20.52
2018-04-23T21:02:03.765Z,20.58
2018-04-23T21:03:41.506Z,20.49
2018-04-23T21:05:19.250Z,20.52
2018-04-23T21:06:56.894Z,20.66
2018-04-23T21:08:37.384Z,20.65
2018-04-23T21:10:15.742Z,20.40
2018-04-23T21:11:56.335Z,20.30
2018-04-23T21:13:34.241Z,20.02
2018-04-23T21:15:12.987Z,20.02
2018-04-23T21:16:54.582Z,20.04
2018-04-23T21:18:33.152Z,20.36
2018-04-23T21:20:10.930Z,20.39
2018-04-23T21:21:48.612Z,20.44
2018-04-23T21:23:27.097Z,20.36
2018-04-23T21:25:07.616Z,20.37